sensor_id;sensor_type;location;lat;lon;timestamp;P1;durP1;ratioP1;P2;durP2;ratioP2
57319;SDS011;43158;51.026;18.190;2023-04-24T07:55:30;7.80;;;7.00;;
57319;SDS011;43158;51.026;18.190;2023-04-24T07:57:56;8.30;;;6.10;;
57319;SDS011;43158;51.026;18.190;2023-04-24T08:00:23;11.10;;;6.80;;
57319;SDS011;43158;51.026;18.190;2023-04-24T08:02:49;7.20;;;6.60;;
57319;SDS011;43158;51.026;18.190;2023-04-24T08:05:16;7.10;;;6.50;;
57319;SDS011;43158;51.026;18.190;2023-04-24T08:07:45;7.10;;;6.20;;
57319;SDS011;43158;51.026;18.190;2023-04-24T08:10:14;6.10;;;5.60;;
57319;SDS011;43158;51.026;18.190;2023-04-24T08:12:41;8.80;;;7.50;;
57319;SDS011;43158;51.026;18.190;2023-04-24T08:15:08;7.60;;;5.80;;
57319;SDS011;43158;51.026;18.190;2023-04-24T08:17:35;9.70;;;6.20;;
57319;SDS011;43158;51.026;18.190;2023-04-24T08:20:03;6.50;;;5.70;;
57319;SDS011;43158;51.026;18.190;2023-04-24T08:22:30;9.10;;;5.30;;
57319;SDS011;43158;51.026;18.190;2023-04-24T08:24:59;6.30;;;5.60;;
57319;SDS011;43158;51.026;18.190;2023-04-24T08:27:26;6.70;;;5.50;;
57319;SDS011;43158;51.026;18.190;2023-04-24T08:29:53;7.90;;;5.70;;
57319;SDS011;43158;51.026;18.190;2023-04-24T08:32:19;7.30;;;5.20;;
57319;SDS011;43158;51.026;18.190;2023-04-24T08:34:46;8.30;;;5.70;;
57319;SDS011;43158;51.026;18.190;2023-04-24T08:37:13;6.00;;;5.50;;
57319;SDS011;43158;51.026;18.190;2023-04-24T08:39:39;5.40;;;4.90;;
57319;SDS011;43158;51.026;18.190;2023-04-24T08:42:07;5.90;;;5.30;;
57319;SDS011;43158;51.026;18.190;2023-04-24T08:44:35;5.80;;;5.30;;
57319;SDS011;43158;51.026;18.190;2023-04-24T08:47:02;8.50;;;5.60;;
57319;SDS011;43158;51.026;18.190;2023-04-24T08:49:29;5.30;;;4.70;;
57319;SDS011;43158;51.026;18.190;2023-04-24T08:51:56;5.90;;;5.10;;
57319;SDS011;43158;51.026;18.190;2023-04-24T08:54:22;5.00;;;4.50;;
57319;SDS011;43158;51.026;18.190;2023-04-24T08:56:49;5.70;;;5.20;;
57319;SDS011;43158;51.026;18.190;2023-04-24T08:59:16;6.80;;;4.60;;
57319;SDS011;43158;51.026;18.190;2023-04-24T09:01:43;6.60;;;5.00;;
57319;SDS011;43158;51.026;18.190;2023-04-24T09:04:11;5.50;;;5.10;;
57319;SDS011;43158;51.026;18.190;2023-04-24T09:06:39;6.00;;;5.20;;
57319;SDS011;43158;51.026;18.190;2023-04-24T09:09:06;5.50;;;5.00;;
57319;SDS011;43158;51.026;18.190;2023-04-24T09:11:35;6.40;;;5.20;;
57319;SDS011;43158;51.026;18.190;2023-04-24T09:14:02;6.60;;;5.30;;
57319;SDS011;43158;51.026;18.190;2023-04-24T09:16:30;5.70;;;5.20;;
57319;SDS011;43158;51.026;18.190;2023-04-24T09:18:59;6.80;;;5.20;;
57319;SDS011;43158;51.026;18.190;2023-04-24T09:21:26;5.80;;;5.30;;
57319;SDS011;43158;51.026;18.190;2023-04-24T09:23:59;5.70;;;5.20;;
57319;SDS011;43158;51.026;18.190;2023-04-24T09:26:29;10.20;;;5.40;;
57319;SDS011;43158;51.026;18.190;2023-04-24T09:28:57;6.30;;;4.90;;
57319;SDS011;43158;51.026;18.190;2023-04-24T09:31:24;6.50;;;5.00;;
57319;SDS011;43158;51.026;18.190;2023-04-24T09:34:00;6.50;;;4.90;;
57319;SDS011;43158;51.026;18.190;2023-04-24T09:36:37;5.20;;;4.60;;
57319;SDS011;43158;51.026;18.190;2023-04-24T09:39:06;5.30;;;4.30;;
57319;SDS011;43158;51.026;18.190;2023-04-24T09:44:11;6.60;;;4.70;;
57319;SDS011;43158;51.026;18.190;2023-04-24T09:46:42;5.50;;;4.50;;
57319;SDS011;43158;51.026;18.190;2023-04-24T09:49:11;6.30;;;5.00;;
57319;SDS011;43158;51.026;18.190;2023-04-24T09:51:39;5.20;;;4.70;;
57319;SDS011;43158;51.026;18.190;2023-04-24T09:54:16;6.40;;;5.30;;
57319;SDS011;43158;51.026;18.190;2023-04-24T09:56:44;5.60;;;5.00;;
57319;SDS011;43158;51.026;18.190;2023-04-24T09:59:12;5.60;;;4.40;;
57319;SDS011;43158;51.026;18.190;2023-04-24T10:01:42;7.20;;;4.80;;
57319;SDS011;43158;51.026;18.190;2023-04-24T10:04:20;4.60;;;4.20;;
57319;SDS011;43158;51.026;18.190;2023-04-24T10:06:49;5.70;;;4.40;;
57319;SDS011;43158;51.026;18.190;2023-04-24T10:09:16;5.50;;;4.40;;
57319;SDS011;43158;51.026;18.190;2023-04-24T10:11:45;5.80;;;4.50;;
57319;SDS011;43158;51.026;18.190;2023-04-24T10:14:12;7.50;;;4.60;;
57319;SDS011;43158;51.026;18.190;2023-04-24T10:16:40;5.50;;;4.30;;
57319;SDS011;43158;51.026;18.190;2023-04-24T10:19:07;5.90;;;5.10;;
57319;SDS011;43158;51.026;18.190;2023-04-24T10:21:34;6.30;;;5.00;;
57319;SDS011;43158;51.026;18.190;2023-04-24T10:24:03;6.70;;;4.90;;
57319;SDS011;43158;51.026;18.190;2023-04-24T10:26:31;6.40;;;5.10;;
57319;SDS011;43158;51.026;18.190;2023-04-24T10:28:58;6.60;;;5.40;;
57319;SDS011;43158;51.026;18.190;2023-04-24T10:31:25;5.10;;;4.70;;
57319;SDS011;43158;51.026;18.190;2023-04-24T10:33:52;8.20;;;5.50;;
57319;SDS011;43158;51.026;18.190;2023-04-24T10:36:19;5.80;;;4.90;;
57319;SDS011;43158;51.026;18.190;2023-04-24T10:38:49;5.70;;;5.10;;
57319;SDS011;43158;51.026;18.190;2023-04-24T10:41:17;6.40;;;5.90;;
57319;SDS011;43158;51.026;18.190;2023-04-24T10:44:07;5.30;;;4.50;;
57319;SDS011;43158;51.026;18.190;2023-04-24T10:46:35;5.30;;;4.80;;
57319;SDS011;43158;51.026;18.190;2023-04-24T10:49:06;5.50;;;5.00;;
57319;SDS011;43158;51.026;18.190;2023-04-24T10:51:45;5.10;;;4.70;;
57319;SDS011;43158;51.026;18.190;2023-04-24T10:54:47;7.20;;;5.20;;
57319;SDS011;43158;51.026;18.190;2023-04-24T10:59:49;6.00;;;5.00;;
57319;SDS011;43158;51.026;18.190;2023-04-24T11:02:36;5.10;;;4.60;;
57319;SDS011;43158;51.026;18.190;2023-04-24T11:05:04;5.50;;;4.80;;
57319;SDS011;43158;51.026;18.190;2023-04-24T11:08:08;6.40;;;4.70;;
57319;SDS011;43158;51.026;18.190;2023-04-24T11:10:40;6.80;;;4.50;;
57319;SDS011;43158;51.026;18.190;2023-04-24T11:13:09;7.70;;;4.80;;
57319;SDS011;43158;51.026;18.190;2023-04-24T11:15:35;4.90;;;4.30;;
57319;SDS011;43158;51.026;18.190;2023-04-24T11:18:02;5.00;;;4.50;;
57319;SDS011;43158;51.026;18.190;2023-04-24T11:20:28;5.40;;;4.40;;
57319;SDS011;43158;51.026;18.190;2023-04-24T11:22:55;4.80;;;4.50;;
57319;SDS011;43158;51.026;18.190;2023-04-24T11:25:23;5.10;;;4.60;;
57319;SDS011;43158;51.026;18.190;2023-04-24T11:27:50;6.00;;;5.50;;
57319;SDS011;43158;51.026;18.190;2023-04-24T11:30:29;8.00;;;5.30;;
57319;SDS011;43158;51.026;18.190;2023-04-24T11:33:01;5.50;;;5.00;;
57319;SDS011;43158;51.026;18.190;2023-04-24T11:35:29;5.20;;;4.70;;
57319;SDS011;43158;51.026;18.190;2023-04-24T11:37:56;6.00;;;5.10;;
57319;SDS011;43158;51.026;18.190;2023-04-24T11:40:22;6.80;;;4.50;;
57319;SDS011;43158;51.026;18.190;2023-04-24T11:42:49;5.50;;;5.00;;
57319;SDS011;43158;51.026;18.190;2023-04-24T11:45:18;5.20;;;4.70;;
57319;SDS011;43158;51.026;18.190;2023-04-24T11:47:47;5.80;;;5.10;;
57319;SDS011;43158;51.026;18.190;2023-04-24T11:50:14;5.60;;;4.70;;
57319;SDS011;43158;51.026;18.190;2023-04-24T11:52:42;5.70;;;4.40;;
57319;SDS011;43158;51.026;18.190;2023-04-24T11:55:30;6.00;;;4.80;;
57319;SDS011;43158;51.026;18.190;2023-04-24T11:57:57;6.20;;;5.60;;
57319;SDS011;43158;51.026;18.190;2023-04-24T12:00:25;6.90;;;5.80;;
57319;SDS011;43158;51.026;18.190;2023-04-24T12:03:03;5.70;;;5.00;;
57319;SDS011;43158;51.026;18.190;2023-04-24T12:05:34;5.80;;;5.10;;
57319;SDS011;43158;51.026;18.190;2023-04-24T12:08:01;20.90;;;5.90;;
57319;SDS011;43158;51.026;18.190;2023-04-24T12:10:28;8.00;;;5.10;;
57319;SDS011;43158;51.026;18.190;2023-04-24T12:12:55;7.20;;;5.20;;
57319;SDS011;43158;51.026;18.190;2023-04-24T12:15:23;8.20;;;4.80;;
57319;SDS011;43158;51.026;18.190;2023-04-24T12:17:53;5.60;;;5.10;;
57319;SDS011;43158;51.026;18.190;2023-04-24T12:20:40;5.50;;;5.00;;
57319;SDS011;43158;51.026;18.190;2023-04-24T12:23:06;5.50;;;5.00;;
57319;SDS011;43158;51.026;18.190;2023-04-24T12:25:32;5.00;;;4.60;;
57319;SDS011;43158;51.026;18.190;2023-04-24T12:30:31;5.00;;;4.50;;
57319;SDS011;43158;51.026;18.190;2023-04-24T12:32:58;4.90;;;4.60;;
57319;SDS011;43158;51.026;18.190;2023-04-24T12:35:27;4.80;;;4.30;;
57319;SDS011;43158;51.026;18.190;2023-04-24T12:37:54;4.60;;;4.20;;
57319;SDS011;43158;51.026;18.190;2023-04-24T12:40:21;4.50;;;4.10;;
57319;SDS011;43158;51.026;18.190;2023-04-24T12:42:49;4.70;;;4.20;;
57319;SDS011;43158;51.026;18.190;2023-04-24T12:45:16;9.50;;;5.20;;
57319;SDS011;43158;51.026;18.190;2023-04-24T12:47:44;5.30;;;4.70;;
57319;SDS011;43158;51.026;18.190;2023-04-24T12:50:12;4.60;;;4.10;;
57319;SDS011;43158;51.026;18.190;2023-04-24T12:52:39;5.60;;;5.10;;
57319;SDS011;43158;51.026;18.190;2023-04-24T12:55:06;5.00;;;3.90;;
57319;SDS011;43158;51.026;18.190;2023-04-24T12:57:37;4.50;;;4.10;;
57319;SDS011;43158;51.026;18.190;2023-04-24T13:00:05;7.30;;;4.80;;
57319;SDS011;43158;51.026;18.190;2023-04-24T13:02:33;6.50;;;5.90;;
57319;SDS011;43158;51.026;18.190;2023-04-24T13:05:00;5.30;;;4.80;;
57319;SDS011;43158;51.026;18.190;2023-04-24T13:07:27;5.70;;;4.70;;
57319;SDS011;43158;51.026;18.190;2023-04-24T13:09:54;5.70;;;4.80;;
57319;SDS011;43158;51.026;18.190;2023-04-24T13:12:21;5.70;;;4.80;;
57319;SDS011;43158;51.026;18.190;2023-04-24T13:14:49;5.70;;;5.10;;
57319;SDS011;43158;51.026;18.190;2023-04-24T13:17:16;6.20;;;5.10;;
57319;SDS011;43158;51.026;18.190;2023-04-24T13:19:42;6.00;;;5.40;;
57319;SDS011;43158;51.026;18.190;2023-04-24T13:22:10;5.90;;;5.40;;
57319;SDS011;43158;51.026;18.190;2023-04-24T13:24:37;7.20;;;5.90;;
57319;SDS011;43158;51.026;18.190;2023-04-24T13:27:05;5.50;;;5.00;;
57319;SDS011;43158;51.026;18.190;2023-04-24T13:29:31;6.00;;;5.00;;
57319;SDS011;43158;51.026;18.190;2023-04-24T13:31:58;5.90;;;5.40;;
57319;SDS011;43158;51.026;18.190;2023-04-24T13:34:24;6.40;;;5.30;;
57319;SDS011;43158;51.026;18.190;2023-04-24T13:36:55;7.90;;;5.40;;
57319;SDS011;43158;51.026;18.190;2023-04-24T13:39:22;5.80;;;5.30;;
57319;SDS011;43158;51.026;18.190;2023-04-24T13:41:49;5.90;;;5.40;;
57319;SDS011;43158;51.026;18.190;2023-04-24T13:44:16;9.00;;;5.50;;
57319;SDS011;43158;51.026;18.190;2023-04-24T13:46:44;5.60;;;5.10;;
57319;SDS011;43158;51.026;18.190;2023-04-24T13:49:12;5.60;;;5.00;;
57319;SDS011;43158;51.026;18.190;2023-04-24T13:51:39;6.10;;;5.50;;
57319;SDS011;43158;51.026;18.190;2023-04-24T13:54:06;6.50;;;6.00;;
57319;SDS011;43158;51.026;18.190;2023-04-24T13:56:33;6.60;;;6.10;;
57319;SDS011;43158;51.026;18.190;2023-04-24T13:58:59;6.50;;;5.90;;
57319;SDS011;43158;51.026;18.190;2023-04-24T14:01:25;6.00;;;5.50;;
57319;SDS011;43158;51.026;18.190;2023-04-24T14:03:52;6.40;;;5.80;;
57319;SDS011;43158;51.026;18.190;2023-04-24T14:06:19;6.70;;;6.20;;
57319;SDS011;43158;51.026;18.190;2023-04-24T14:08:46;7.20;;;6.40;;
57319;SDS011;43158;51.026;18.190;2023-04-24T14:11:13;9.80;;;7.00;;
57319;SDS011;43158;51.026;18.190;2023-04-24T14:13:41;6.70;;;5.80;;
57319;SDS011;43158;51.026;18.190;2023-04-24T14:16:08;6.40;;;5.90;;
57319;SDS011;43158;51.026;18.190;2023-04-24T14:18:34;6.50;;;5.40;;
57319;SDS011;43158;51.026;18.190;2023-04-24T14:21:05;7.30;;;6.50;;
57319;SDS011;43158;51.026;18.190;2023-04-24T14:23:32;6.80;;;6.10;;
57319;SDS011;43158;51.026;18.190;2023-04-24T14:25:58;8.50;;;7.40;;
57319;SDS011;43158;51.026;18.190;2023-04-24T14:28:25;7.10;;;6.40;;
57319;SDS011;43158;51.026;18.190;2023-04-24T14:33:20;7.10;;;6.40;;
57319;SDS011;43158;51.026;18.190;2023-04-24T14:35:47;6.60;;;5.90;;
57319;SDS011;43158;51.026;18.190;2023-04-24T14:38:14;7.20;;;6.30;;
57319;SDS011;43158;51.026;18.190;2023-04-24T14:40:40;8.50;;;6.70;;
57319;SDS011;43158;51.026;18.190;2023-04-24T14:43:07;7.80;;;7.10;;
57319;SDS011;43158;51.026;18.190;2023-04-24T14:45:33;6.90;;;6.20;;
57319;SDS011;43158;51.026;18.190;2023-04-24T14:48:00;14.10;;;7.90;;
57319;SDS011;43158;51.026;18.190;2023-04-24T14:50:26;7.50;;;6.90;;
57319;SDS011;43158;51.026;18.190;2023-04-24T14:52:54;7.90;;;7.10;;
57319;SDS011;43158;51.026;18.190;2023-04-24T14:55:23;7.90;;;7.10;;
57319;SDS011;43158;51.026;18.190;2023-04-24T14:57:51;8.60;;;7.10;;
57319;SDS011;43158;51.026;18.190;2023-04-24T15:00:18;6.90;;;5.70;;
57319;SDS011;43158;51.026;18.190;2023-04-24T15:02:45;7.20;;;6.70;;
57319;SDS011;43158;51.026;18.190;2023-04-24T15:05:12;8.00;;;7.30;;
57319;SDS011;43158;51.026;18.190;2023-04-24T15:07:38;7.70;;;7.10;;
57319;SDS011;43158;51.026;18.190;2023-04-24T15:10:07;8.00;;;7.20;;
57319;SDS011;43158;51.026;18.190;2023-04-24T15:12:33;8.30;;;7.50;;
57319;SDS011;43158;51.026;18.190;2023-04-24T15:15:00;8.00;;;7.30;;
57319;SDS011;43158;51.026;18.190;2023-04-24T15:17:26;7.60;;;7.00;;
57319;SDS011;43158;51.026;18.190;2023-04-24T15:19:52;7.60;;;7.00;;
57319;SDS011;43158;51.026;18.190;2023-04-24T15:22:19;7.50;;;6.70;;
57319;SDS011;43158;51.026;18.190;2023-04-24T15:24:46;7.80;;;7.00;;
57319;SDS011;43158;51.026;18.190;2023-04-24T15:27:13;10.00;;;7.50;;
57319;SDS011;43158;51.026;18.190;2023-04-24T15:29:39;9.10;;;8.40;;
57319;SDS011;43158;51.026;18.190;2023-04-24T15:32:06;8.90;;;8.30;;
57319;SDS011;43158;51.026;18.190;2023-04-24T15:34:32;8.40;;;7.70;;
57319;SDS011;43158;51.026;18.190;2023-04-24T15:36:59;7.80;;;7.20;;
57319;SDS011;43158;51.026;18.190;2023-04-24T15:39:26;12.30;;;8.50;;
57319;SDS011;43158;51.026;18.190;2023-04-24T15:41:53;8.90;;;7.60;;
57319;SDS011;43158;51.026;18.190;2023-04-24T15:44:20;8.80;;;8.00;;
57319;SDS011;43158;51.026;18.190;2023-04-24T15:46:47;8.40;;;7.50;;
57319;SDS011;43158;51.026;18.190;2023-04-24T15:49:13;8.90;;;8.10;;
57319;SDS011;43158;51.026;18.190;2023-04-24T15:51:39;9.90;;;9.00;;
57319;SDS011;43158;51.026;18.190;2023-04-24T15:54:06;9.60;;;8.70;;
57319;SDS011;43158;51.026;18.190;2023-04-24T15:56:33;10.10;;;9.20;;
57319;SDS011;43158;51.026;18.190;2023-04-24T15:59:01;10.20;;;9.40;;
57319;SDS011;43158;51.026;18.190;2023-04-24T16:01:29;11.50;;;10.50;;
57319;SDS011;43158;51.026;18.190;2023-04-24T16:03:55;12.30;;;11.20;;
57319;SDS011;43158;51.026;18.190;2023-04-24T16:06:23;12.00;;;11.00;;
57319;SDS011;43158;51.026;18.190;2023-04-24T16:08:50;11.50;;;10.40;;
57319;SDS011;43158;51.026;18.190;2023-04-24T16:11:16;10.80;;;9.80;;
57319;SDS011;43158;51.026;18.190;2023-04-24T16:13:43;11.50;;;10.60;;
57319;SDS011;43158;51.026;18.190;2023-04-24T16:16:09;11.40;;;10.40;;
57319;SDS011;43158;51.026;18.190;2023-04-24T16:18:36;11.90;;;10.70;;
57319;SDS011;43158;51.026;18.190;2023-04-24T16:21:02;10.90;;;10.00;;
57319;SDS011;43158;51.026;18.190;2023-04-24T16:23:29;11.70;;;10.80;;
57319;SDS011;43158;51.026;18.190;2023-04-24T16:25:55;11.80;;;10.70;;
57319;SDS011;43158;51.026;18.190;2023-04-24T16:28:21;10.70;;;9.60;;
57319;SDS011;43158;51.026;18.190;2023-04-24T16:30:48;12.40;;;11.30;;
57319;SDS011;43158;51.026;18.190;2023-04-24T16:33:15;14.10;;;12.20;;
57319;SDS011;43158;51.026;18.190;2023-04-24T16:35:41;15.70;;;13.90;;
57319;SDS011;43158;51.026;18.190;2023-04-24T16:38:08;17.60;;;16.00;;
57319;SDS011;43158;51.026;18.190;2023-04-24T16:40:35;13.40;;;11.90;;
57319;SDS011;43158;51.026;18.190;2023-04-24T16:43:02;13.20;;;12.10;;
57319;SDS011;43158;51.026;18.190;2023-04-24T16:45:28;13.40;;;12.40;;
57319;SDS011;43158;51.026;18.190;2023-04-24T16:47:55;12.40;;;11.50;;
57319;SDS011;43158;51.026;18.190;2023-04-24T16:50:22;12.60;;;11.40;;
57319;SDS011;43158;51.026;18.190;2023-04-24T16:52:48;11.90;;;11.00;;
57319;SDS011;43158;51.026;18.190;2023-04-24T16:55:15;13.70;;;12.50;;
57319;SDS011;43158;51.026;18.190;2023-04-24T16:57:41;13.50;;;12.40;;
57319;SDS011;43158;51.026;18.190;2023-04-24T17:00:08;12.90;;;11.80;;
57319;SDS011;43158;51.026;18.190;2023-04-24T17:02:35;14.40;;;13.10;;
57319;SDS011;43158;51.026;18.190;2023-04-24T17:05:02;15.50;;;14.10;;
57319;SDS011;43158;51.026;18.190;2023-04-24T17:07:28;14.40;;;13.00;;
57319;SDS011;43158;51.026;18.190;2023-04-24T17:09:55;15.10;;;13.70;;
57319;SDS011;43158;51.026;18.190;2023-04-24T17:12:23;14.90;;;13.50;;
57319;SDS011;43158;51.026;18.190;2023-04-24T17:14:49;15.40;;;13.80;;
57319;SDS011;43158;51.026;18.190;2023-04-24T17:17:16;14.60;;;13.00;;
57319;SDS011;43158;51.026;18.190;2023-04-24T17:22:12;16.00;;;14.60;;
57319;SDS011;43158;51.026;18.190;2023-04-24T17:24:38;14.60;;;13.10;;
57319;SDS011;43158;51.026;18.190;2023-04-24T17:27:04;16.10;;;14.80;;
57319;SDS011;43158;51.026;18.190;2023-04-24T17:29:31;15.50;;;14.10;;
57319;SDS011;43158;51.026;18.190;2023-04-24T17:31:58;15.50;;;13.60;;
57319;SDS011;43158;51.026;18.190;2023-04-24T17:34:25;16.00;;;14.60;;
57319;SDS011;43158;51.026;18.190;2023-04-24T17:36:51;15.50;;;14.00;;
57319;SDS011;43158;51.026;18.190;2023-04-24T17:39:18;18.00;;;16.30;;
57319;SDS011;43158;51.026;18.190;2023-04-24T17:41:44;16.00;;;14.60;;
57319;SDS011;43158;51.026;18.190;2023-04-24T17:44:11;17.50;;;15.90;;
57319;SDS011;43158;51.026;18.190;2023-04-24T17:46:37;16.30;;;14.90;;
57319;SDS011;43158;51.026;18.190;2023-04-24T17:49:04;16.30;;;14.90;;
57319;SDS011;43158;51.026;18.190;2023-04-24T17:51:30;15.20;;;13.90;;
57319;SDS011;43158;51.026;18.190;2023-04-24T17:53:58;14.90;;;13.70;;
57319;SDS011;43158;51.026;18.190;2023-04-24T17:56:24;16.60;;;14.70;;
57319;SDS011;43158;51.026;18.190;2023-04-24T17:58:51;17.00;;;15.40;;
57319;SDS011;43158;51.026;18.190;2023-04-24T18:01:18;16.40;;;14.90;;
57319;SDS011;43158;51.026;18.190;2023-04-24T18:03:44;13.40;;;12.20;;
57319;SDS011;43158;51.026;18.190;2023-04-24T18:06:10;13.00;;;11.80;;
57319;SDS011;43158;51.026;18.190;2023-04-24T18:08:42;8.80;;;7.80;;
57319;SDS011;43158;51.026;18.190;2023-04-24T18:11:08;7.60;;;6.80;;
57319;SDS011;43158;51.026;18.190;2023-04-24T18:13:34;6.00;;;5.40;;
57319;SDS011;43158;51.026;18.190;2023-04-24T18:16:01;5.80;;;4.50;;
57319;SDS011;43158;51.026;18.190;2023-04-24T18:18:28;5.30;;;3.60;;
57319;SDS011;43158;51.026;18.190;2023-04-24T18:20:54;5.10;;;4.30;;
57319;SDS011;43158;51.026;18.190;2023-04-24T18:23:21;5.30;;;4.10;;
57319;SDS011;43158;51.026;18.190;2023-04-24T18:25:47;4.90;;;4.20;;
57319;SDS011;43158;51.026;18.190;2023-04-24T18:28:13;5.70;;;4.00;;
57319;SDS011;43158;51.026;18.190;2023-04-24T18:30:40;4.40;;;4.00;;
57319;SDS011;43158;51.026;18.190;2023-04-24T18:33:06;4.20;;;3.80;;
57319;SDS011;43158;51.026;18.190;2023-04-24T18:35:33;3.70;;;3.30;;
57319;SDS011;43158;51.026;18.190;2023-04-24T18:37:59;4.00;;;3.10;;
57319;SDS011;43158;51.026;18.190;2023-04-24T18:40:27;3.30;;;2.60;;
57319;SDS011;43158;51.026;18.190;2023-04-24T18:42:53;3.70;;;2.50;;
57319;SDS011;43158;51.026;18.190;2023-04-24T18:45:21;3.10;;;2.80;;
57319;SDS011;43158;51.026;18.190;2023-04-24T18:47:47;3.60;;;2.30;;
57319;SDS011;43158;51.026;18.190;2023-04-24T18:50:14;3.50;;;2.40;;
57319;SDS011;43158;51.026;18.190;2023-04-24T18:52:41;2.80;;;2.50;;
57319;SDS011;43158;51.026;18.190;2023-04-24T18:55:07;3.70;;;2.50;;
57319;SDS011;43158;51.026;18.190;2023-04-24T18:57:35;3.40;;;2.60;;
57319;SDS011;43158;51.026;18.190;2023-04-24T19:00:01;4.30;;;2.00;;
57319;SDS011;43158;51.026;18.190;2023-04-24T19:02:28;3.70;;;2.40;;
57319;SDS011;43158;51.026;18.190;2023-04-24T19:04:55;2.90;;;2.60;;
57319;SDS011;43158;51.026;18.190;2023-04-24T19:07:22;3.00;;;2.30;;
57319;SDS011;43158;51.026;18.190;2023-04-24T19:09:49;2.70;;;2.30;;
57319;SDS011;43158;51.026;18.190;2023-04-24T19:12:15;3.20;;;2.20;;
57319;SDS011;43158;51.026;18.190;2023-04-24T19:14:42;3.20;;;2.60;;
57319;SDS011;43158;51.026;18.190;2023-04-24T19:17:08;2.70;;;2.50;;
57319;SDS011;43158;51.026;18.190;2023-04-24T19:19:35;4.30;;;2.70;;
57319;SDS011;43158;51.026;18.190;2023-04-24T19:22:02;3.50;;;2.60;;
57319;SDS011;43158;51.026;18.190;2023-04-24T19:24:30;3.60;;;3.00;;
57319;SDS011;43158;51.026;18.190;2023-04-24T19:26:58;7.10;;;6.40;;
57319;SDS011;43158;51.026;18.190;2023-04-24T19:29:24;10.10;;;9.20;;
57319;SDS011;43158;51.026;18.190;2023-04-24T19:31:51;14.10;;;12.80;;
57319;SDS011;43158;51.026;18.190;2023-04-24T19:34:19;16.40;;;15.10;;
57319;SDS011;43158;51.026;18.190;2023-04-24T19:36:45;19.90;;;18.00;;
57319;SDS011;43158;51.026;18.190;2023-04-24T19:39:12;20.70;;;18.70;;
57319;SDS011;43158;51.026;18.190;2023-04-24T19:41:39;20.80;;;18.80;;
57319;SDS011;43158;51.026;18.190;2023-04-24T19:44:06;21.60;;;19.70;;
57319;SDS011;43158;51.026;18.190;2023-04-24T19:46:33;22.90;;;20.50;;
57319;SDS011;43158;51.026;18.190;2023-04-24T19:49:00;21.90;;;19.90;;
57319;SDS011;43158;51.026;18.190;2023-04-24T19:51:27;24.40;;;22.20;;
57319;SDS011;43158;51.026;18.190;2023-04-24T19:53:53;24.70;;;22.40;;
57319;SDS011;43158;51.026;18.190;2023-04-24T19:56:20;25.20;;;22.70;;
57319;SDS011;43158;51.026;18.190;2023-04-24T19:58:47;25.60;;;23.20;;
57319;SDS011;43158;51.026;18.190;2023-04-24T20:01:13;28.70;;;26.20;;
57319;SDS011;43158;51.026;18.190;2023-04-24T20:03:40;28.20;;;25.40;;
57319;SDS011;43158;51.026;18.190;2023-04-24T20:06:06;30.20;;;27.30;;
57319;SDS011;43158;51.026;18.190;2023-04-24T20:08:33;31.10;;;27.80;;
57319;SDS011;43158;51.026;18.190;2023-04-24T20:11:03;33.30;;;28.20;;
57319;SDS011;43158;51.026;18.190;2023-04-24T20:13:30;33.60;;;30.00;;
57319;SDS011;43158;51.026;18.190;2023-04-24T20:15:57;33.20;;;29.70;;
57319;SDS011;43158;51.026;18.190;2023-04-24T20:18:24;31.10;;;28.00;;
57319;SDS011;43158;51.026;18.190;2023-04-24T20:20:52;30.60;;;27.60;;
57319;SDS011;43158;51.026;18.190;2023-04-24T20:23:21;29.60;;;26.70;;
57319;SDS011;43158;51.026;18.190;2023-04-24T20:25:48;30.60;;;27.50;;
57319;SDS011;43158;51.026;18.190;2023-04-24T20:28:14;29.00;;;25.90;;
57319;SDS011;43158;51.026;18.190;2023-04-24T20:30:41;29.40;;;26.60;;
57319;SDS011;43158;51.026;18.190;2023-04-24T20:33:07;32.10;;;28.80;;
57319;SDS011;43158;51.026;18.190;2023-04-24T20:35:34;29.30;;;26.30;;
57319;SDS011;43158;51.026;18.190;2023-04-24T20:38:00;29.30;;;26.30;;
57319;SDS011;43158;51.026;18.190;2023-04-24T20:40:27;30.50;;;27.60;;
57319;SDS011;43158;51.026;18.190;2023-04-24T20:42:54;29.30;;;26.20;;
57319;SDS011;43158;51.026;18.190;2023-04-24T20:45:22;29.40;;;26.40;;
57319;SDS011;43158;51.026;18.190;2023-04-24T20:47:48;27.40;;;24.90;;
57319;SDS011;43158;51.026;18.190;2023-04-24T20:50:15;28.60;;;25.90;;
57319;SDS011;43158;51.026;18.190;2023-04-24T20:52:43;27.20;;;24.60;;
57319;SDS011;43158;51.026;18.190;2023-04-24T20:55:09;27.30;;;24.50;;
57319;SDS011;43158;51.026;18.190;2023-04-24T20:57:36;26.10;;;23.50;;
57319;SDS011;43158;51.026;18.190;2023-04-24T21:00:03;29.50;;;26.50;;
57319;SDS011;43158;51.026;18.190;2023-04-24T21:02:32;24.70;;;22.30;;
57319;SDS011;43158;51.026;18.190;2023-04-24T21:04:59;25.90;;;23.20;;
57319;SDS011;43158;51.026;18.190;2023-04-24T21:07:26;26.70;;;23.00;;
57319;SDS011;43158;51.026;18.190;2023-04-24T21:09:52;27.90;;;25.20;;
57319;SDS011;43158;51.026;18.190;2023-04-24T21:12:18;25.30;;;22.80;;
57319;SDS011;43158;51.026;18.190;2023-04-24T21:14:45;27.70;;;24.90;;
57319;SDS011;43158;51.026;18.190;2023-04-24T21:17:11;26.30;;;23.80;;
57319;SDS011;43158;51.026;18.190;2023-04-24T21:19:38;26.50;;;23.90;;
57319;SDS011;43158;51.026;18.190;2023-04-24T21:22:05;28.80;;;24.90;;
57319;SDS011;43158;51.026;18.190;2023-04-24T21:24:31;27.30;;;24.00;;
57319;SDS011;43158;51.026;18.190;2023-04-24T21:26:58;27.20;;;24.40;;
57319;SDS011;43158;51.026;18.190;2023-04-24T21:29:25;30.00;;;27.00;;
57319;SDS011;43158;51.026;18.190;2023-04-24T21:31:52;30.40;;;27.30;;
57319;SDS011;43158;51.026;18.190;2023-04-24T21:34:18;29.90;;;26.80;;
57319;SDS011;43158;51.026;18.190;2023-04-24T21:36:45;30.60;;;27.20;;
57319;SDS011;43158;51.026;18.190;2023-04-24T21:39:12;29.40;;;26.20;;
57319;SDS011;43158;51.026;18.190;2023-04-24T21:41:39;28.10;;;25.10;;
57319;SDS011;43158;51.026;18.190;2023-04-24T21:44:05;29.50;;;26.40;;
57319;SDS011;43158;51.026;18.190;2023-04-24T21:46:32;29.90;;;25.10;;
57319;SDS011;43158;51.026;18.190;2023-04-24T21:48:59;30.30;;;26.20;;
57319;SDS011;43158;51.026;18.190;2023-04-24T21:51:25;29.10;;;25.80;;
57319;SDS011;43158;51.026;18.190;2023-04-24T21:53:52;33.00;;;27.30;;
57319;SDS011;43158;51.026;18.190;2023-04-24T21:56:19;32.70;;;27.30;;
57319;SDS011;43158;51.026;18.190;2023-04-24T21:58:46;28.20;;;25.20;;
57319;SDS011;43158;51.026;18.190;2023-04-24T22:01:12;27.90;;;24.80;;
57319;SDS011;43158;51.026;18.190;2023-04-24T22:03:40;29.20;;;26.10;;
57319;SDS011;43158;51.026;18.190;2023-04-24T22:06:06;29.80;;;26.50;;
57319;SDS011;43158;51.026;18.190;2023-04-24T22:08:33;32.20;;;27.00;;
57319;SDS011;43158;51.026;18.190;2023-04-24T22:11:00;33.60;;;28.60;;
57319;SDS011;43158;51.026;18.190;2023-04-24T22:13:27;32.40;;;28.90;;
57319;SDS011;43158;51.026;18.190;2023-04-24T22:15:56;36.10;;;32.10;;
57319;SDS011;43158;51.026;18.190;2023-04-24T22:18:23;34.50;;;30.70;;
57319;SDS011;43158;51.026;18.190;2023-04-24T22:20:50;39.50;;;34.20;;
57319;SDS011;43158;51.026;18.190;2023-04-24T22:23:17;40.20;;;35.40;;
57319;SDS011;43158;51.026;18.190;2023-04-24T22:25:44;38.70;;;34.30;;
57319;SDS011;43158;51.026;18.190;2023-04-24T22:28:10;42.80;;;37.60;;
57319;SDS011;43158;51.026;18.190;2023-04-24T22:30:37;48.90;;;39.60;;
57319;SDS011;43158;51.026;18.190;2023-04-24T22:33:03;50.30;;;40.60;;
57319;SDS011;43158;51.026;18.190;2023-04-24T22:35:30;52.90;;;40.90;;